sensor_id;sensor_type;location;lat;lon;timestamp;pressure;altitude;pressure_sealevel;temperature;humidity
62617;BME280;62539;51.190;6.808;2023-04-25T00:00:19;100716.22;;;19.34;52.04
62617;BME280;62539;51.190;6.808;2023-04-25T00:02:45;100717.97;;;19.33;52.02
62617;BME280;62539;51.190;6.808;2023-04-25T00:05:11;100718.06;;;19.32;52.25
62617;BME280;62539;51.190;6.808;2023-04-25T00:07:37;100717.19;;;19.31;52.11
62617;BME280;62539;51.190;6.808;2023-04-25T00:10:04;100716.38;;;19.29;52.07
62617;BME280;62539;51.190;6.808;2023-04-25T00:12:29;100715.53;;;19.29;52.02
62617;BME280;62539;51.190;6.808;2023-04-25T00:14:55;100719.09;;;19.28;52.02
62617;BME280;62539;51.190;6.808;2023-04-25T00:17:22;100721.75;;;19.26;52.15
62617;BME280;62539;51.190;6.808;2023-04-25T00:19:49;100718.28;;;19.26;52.11
62617;BME280;62539;51.190;6.808;2023-04-25T00:22:15;100718.34;;;19.24;52.11
62617;BME280;62539;51.190;6.808;2023-04-25T00:24:42;100724.50;;;19.23;52.12
62617;BME280;62539;51.190;6.808;2023-04-25T00:27:07;100720.16;;;19.22;51.86
62617;BME280;62539;51.190;6.808;2023-04-25T00:29:33;100724.63;;;19.20;51.93
62617;BME280;62539;51.190;6.808;2023-04-25T00:31:59;100722.00;;;19.20;52.23
62617;BME280;62539;51.190;6.808;2023-04-25T00:34:24;100720.28;;;19.19;52.19
62617;BME280;62539;51.190;6.808;2023-04-25T00:36:50;100726.47;;;19.18;52.05
62617;BME280;62539;51.190;6.808;2023-04-25T00:39:15;100722.13;;;19.17;52.00
62617;BME280;62539;51.190;6.808;2023-04-25T00:41:41;100725.66;;;19.16;51.96
62617;BME280;62539;51.190;6.808;2023-04-25T00:44:08;100723.94;;;19.15;51.97
62617;BME280;62539;51.190;6.808;2023-04-25T00:46:35;100725.78;;;19.13;51.84
62617;BME280;62539;51.190;6.808;2023-04-25T00:49:01;100729.31;;;19.12;52.00
62617;BME280;62539;51.190;6.808;2023-04-25T00:51:26;100719.69;;;19.12;52.25
62617;BME280;62539;51.190;6.808;2023-04-25T00:53:52;100727.59;;;19.10;52.12
62617;BME280;62539;51.190;6.808;2023-04-25T00:56:18;100720.63;;;19.09;52.14
62617;BME280;62539;51.190;6.808;2023-04-25T00:58:44;100724.19;;;19.08;52.02
62617;BME280;62539;51.190;6.808;2023-04-25T01:01:11;100725.03;;;19.09;51.59
62617;BME280;62539;51.190;6.808;2023-04-25T01:03:39;100727.72;;;19.07;51.96
62617;BME280;62539;51.190;6.808;2023-04-25T01:06:11;100725.16;;;19.06;52.04
62617;BME280;62539;51.190;6.808;2023-04-25T01:08:38;100719.03;;;19.05;51.96
62617;BME280;62539;51.190;6.808;2023-04-25T01:11:05;100719.94;;;19.04;52.23
62617;BME280;62539;51.190;6.808;2023-04-25T01:13:31;100727.84;;;19.04;52.29
62617;BME280;62539;51.190;6.808;2023-04-25T01:15:58;100734.00;;;19.03;52.18
62617;BME280;62539;51.190;6.808;2023-04-25T01:18:24;100734.06;;;19.02;52.05
62617;BME280;62539;51.190;6.808;2023-04-25T01:20:53;100732.38;;;19.01;52.14
62617;BME280;62539;51.190;6.808;2023-04-25T01:23:22;100733.22;;;19.01;52.07
62617;BME280;62539;51.190;6.808;2023-04-25T01:25:48;100727.16;;;18.99;52.13
62617;BME280;62539;51.190;6.808;2023-04-25T01:28:14;100735.03;;;18.99;52.08
62617;BME280;62539;51.190;6.808;2023-04-25T01:30:41;100726.34;;;18.97;52.26
62617;BME280;62539;51.190;6.808;2023-04-25T01:33:08;100728.06;;;18.98;52.23
62617;BME280;62539;51.190;6.808;2023-04-25T01:35:34;100731.59;;;18.97;52.24
62617;BME280;62539;51.190;6.808;2023-04-25T01:38:00;100722.88;;;18.95;52.10
62617;BME280;62539;51.190;6.808;2023-04-25T01:40:26;100728.16;;;18.95;52.15
62617;BME280;62539;51.190;6.808;2023-04-25T01:42:53;100736.94;;;18.94;52.18
62617;BME280;62539;51.190;6.808;2023-04-25T01:45:19;100734.31;;;18.94;52.29
62617;BME280;62539;51.190;6.808;2023-04-25T01:47:45;100735.22;;;18.93;52.33
62617;BME280;62539;51.190;6.808;2023-04-25T01:50:16;100733.50;;;18.92;52.40
62617;BME280;62539;51.190;6.808;2023-04-25T01:52:43;100737.06;;;18.91;52.22
62617;BME280;62539;51.190;6.808;2023-04-25T01:55:14;100737.13;;;18.89;52.35
62617;BME280;62539;51.190;6.808;2023-04-25T01:57:39;100744.13;;;18.89;52.37
62617;BME280;62539;51.190;6.808;2023-04-25T02:00:06;100744.13;;;18.89;52.53
62617;BME280;62539;51.190;6.808;2023-04-25T02:02:32;100754.66;;;18.89;52.45
62617;BME280;62539;51.190;6.808;2023-04-25T02:04:57;100749.47;;;18.87;52.46
62617;BME280;62539;51.190;6.808;2023-04-25T02:07:23;100749.50;;;18.86;52.43
62617;BME280;62539;51.190;6.808;2023-04-25T02:09:48;100749.50;;;18.86;52.38
62617;BME280;62539;51.190;6.808;2023-04-25T02:12:13;100747.78;;;18.85;52.35
62617;BME280;62539;51.190;6.808;2023-04-25T02:14:39;100751.34;;;18.84;52.54
62617;BME280;62539;51.190;6.808;2023-04-25T02:17:05;100757.50;;;18.83;52.52
62617;BME280;62539;51.190;6.808;2023-04-25T02:19:30;100754.88;;;18.83;52.54
62617;BME280;62539;51.190;6.808;2023-04-25T02:21:56;100761.03;;;18.81;52.43
62617;BME280;62539;51.190;6.808;2023-04-25T02:24:22;100757.56;;;18.81;52.47
62617;BME280;62539;51.190;6.808;2023-04-25T02:26:47;100755.84;;;18.80;52.44
62617;BME280;62539;51.190;6.808;2023-04-25T02:29:14;100754.16;;;18.79;52.55
62617;BME280;62539;51.190;6.808;2023-04-25T02:31:40;100755.06;;;18.78;52.11
62617;BME280;62539;51.190;6.808;2023-04-25T02:34:05;100751.56;;;18.77;52.50
62617;BME280;62539;51.190;6.808;2023-04-25T02:36:31;100755.09;;;18.76;52.26
62617;BME280;62539;51.190;6.808;2023-04-25T02:38:59;100753.38;;;18.75;52.29
62617;BME280;62539;51.190;6.808;2023-04-25T02:41:25;100753.38;;;18.75;52.59
62617;BME280;62539;51.190;6.808;2023-04-25T02:43:51;100756.91;;;18.74;52.50
62617;BME280;62539;51.190;6.808;2023-04-25T02:46:17;100747.31;;;18.73;52.49
62617;BME280;62539;51.190;6.808;2023-04-25T02:48:43;100745.59;;;18.72;52.79
62617;BME280;62539;51.190;6.808;2023-04-25T02:51:08;100756.13;;;18.72;52.58
62617;BME280;62539;51.190;6.808;2023-04-25T02:53:34;100751.78;;;18.71;52.50
62617;BME280;62539;51.190;6.808;2023-04-25T02:55:59;100754.41;;;18.71;52.75
62617;BME280;62539;51.190;6.808;2023-04-25T02:58:25;100754.41;;;18.71;52.60
62617;BME280;62539;51.190;6.808;2023-04-25T03:00:50;100756.19;;;18.71;52.61
62617;BME280;62539;51.190;6.808;2023-04-25T03:03:15;100750.06;;;18.70;52.67
62617;BME280;62539;51.190;6.808;2023-04-25T03:05:45;100745.72;;;18.69;52.57
62617;BME280;62539;51.190;6.808;2023-04-25T03:08:11;100748.34;;;18.69;52.61
62617;BME280;62539;51.190;6.808;2023-04-25T03:10:38;100754.50;;;18.68;52.60
62617;BME280;62539;51.190;6.808;2023-04-25T03:13:04;100750.16;;;18.67;52.61
62617;BME280;62539;51.190;6.808;2023-04-25T03:15:29;100758.03;;;18.67;52.63
62617;BME280;62539;51.190;6.808;2023-04-25T03:17:56;100758.97;;;18.66;52.66
62617;BME280;62539;51.190;6.808;2023-04-25T03:20:21;100764.22;;;18.66;52.62
62617;BME280;62539;51.190;6.808;2023-04-25T03:22:47;100754.63;;;18.65;52.60
62617;BME280;62539;51.190;6.808;2023-04-25T03:25:12;100750.28;;;18.64;52.81
62617;BME280;62539;51.190;6.808;2023-04-25T03:27:38;100755.53;;;18.64;52.84
62617;BME280;62539;51.190;6.808;2023-04-25T03:30:04;100755.59;;;18.62;52.81
62617;BME280;62539;51.190;6.808;2023-04-25T03:32:29;100757.34;;;18.62;52.91
62617;BME280;62539;51.190;6.808;2023-04-25T03:34:55;100757.34;;;18.62;52.74
62617;BME280;62539;51.190;6.808;2023-04-25T03:37:20;100757.34;;;18.62;52.44
62617;BME280;62539;51.190;6.808;2023-04-25T03:39:46;100759.06;;;18.63;52.48
62617;BME280;62539;51.190;6.808;2023-04-25T03:42:11;100766.00;;;18.65;52.39
62617;BME280;62539;51.190;6.808;2023-04-25T03:44:37;100764.09;;;18.69;52.59
62617;BME280;62539;51.190;6.808;2023-04-25T03:47:02;100765.72;;;18.73;52.78
62617;BME280;62539;51.190;6.808;2023-04-25T03:49:27;100764.69;;;18.77;52.70
62617;BME280;62539;51.190;6.808;2023-04-25T03:51:53;100772.44;;;18.82;52.51
62617;BME280;62539;51.190;6.808;2023-04-25T03:54:18;100769.63;;;18.87;52.53
62617;BME280;62539;51.190;6.808;2023-04-25T03:56:44;100771.22;;;18.91;52.57
62617;BME280;62539;51.190;6.808;2023-04-25T03:59:09;100769.38;;;18.94;52.47
62617;BME280;62539;51.190;6.808;2023-04-25T04:01:34;100772.75;;;18.98;52.38
62617;BME280;62539;51.190;6.808;2023-04-25T04:04:00;100771.72;;;19.02;52.44
62617;BME280;62539;51.190;6.808;2023-04-25T04:06:26;100775.16;;;19.04;52.46
62617;BME280;62539;51.190;6.808;2023-04-25T04:08:51;100766.34;;;19.05;52.20
62617;BME280;62539;51.190;6.808;2023-04-25T04:11:17;100775.03;;;19.07;52.03
62617;BME280;62539;51.190;6.808;2023-04-25T04:13:42;100778.47;;;19.09;52.30
62617;BME280;62539;51.190;6.808;2023-04-25T04:16:08;100778.38;;;19.13;52.41
62617;BME280;62539;51.190;6.808;2023-04-25T04:18:33;100773.09;;;19.13;52.30
62617;BME280;62539;51.190;6.808;2023-04-25T04:20:59;100787.97;;;19.14;52.20
62617;BME280;62539;51.190;6.808;2023-04-25T04:23:24;100781.78;;;19.15;52.17
62617;BME280;62539;51.190;6.808;2023-04-25T04:25:52;100783.50;;;19.16;52.08
62617;BME280;62539;51.190;6.808;2023-04-25T04:28:19;100787.84;;;19.17;52.02
62617;BME280;62539;51.190;6.808;2023-04-25T04:30:45;100791.28;;;19.19;52.00
62617;BME280;62539;51.190;6.808;2023-04-25T04:33:11;100788.63;;;19.20;51.88
62617;BME280;62539;51.190;6.808;2023-04-25T04:35:37;100785.00;;;19.23;52.14
62617;BME280;62539;51.190;6.808;2023-04-25T04:38:02;100788.44;;;19.25;52.31
62617;BME280;62539;51.190;6.808;2023-04-25T04:40:28;100794.44;;;19.29;52.22
62617;BME280;62539;51.190;6.808;2023-04-25T04:42:56;100790.84;;;19.31;52.22
62617;BME280;62539;51.190;6.808;2023-04-25T04:45:22;100795.19;;;19.32;52.14
62617;BME280;62539;51.190;6.808;2023-04-25T04:47:49;100804.78;;;19.33;52.21
62617;BME280;62539;51.190;6.808;2023-04-25T04:50:15;100803.88;;;19.34;52.27
62617;BME280;62539;51.190;6.808;2023-04-25T04:52:41;100811.66;;;19.37;52.61
62617;BME280;62539;51.190;6.808;2023-04-25T04:55:07;100814.28;;;19.37;52.45
62617;BME280;62539;51.190;6.808;2023-04-25T04:57:34;100809.00;;;19.37;52.21
62617;BME280;62539;51.190;6.808;2023-04-25T05:00:00;100817.72;;;19.39;52.47
62617;BME280;62539;51.190;6.808;2023-04-25T05:02:25;100818.63;;;19.38;52.45
62617;BME280;62539;51.190;6.808;2023-04-25T05:04:51;100835.22;;;19.41;52.50
62617;BME280;62539;51.190;6.808;2023-04-25T05:07:18;100827.31;;;19.41;52.41
62617;BME280;62539;51.190;6.808;2023-04-25T05:09:44;100835.09;;;19.44;52.39
62617;BME280;62539;51.190;6.808;2023-04-25T05:12:10;100838.53;;;19.46;52.58
62617;BME280;62539;51.190;6.808;2023-04-25T05:14:35;100847.22;;;19.48;52.50
62617;BME280;62539;51.190;6.808;2023-04-25T05:17:01;100842.75;;;19.50;52.65
62617;BME280;62539;51.190;6.808;2023-04-25T05:19:29;100848.81;;;19.52;52.43
62617;BME280;62539;51.190;6.808;2023-04-25T05:21:55;100852.31;;;19.52;52.72
62617;BME280;62539;51.190;6.808;2023-04-25T05:24:20;100860.16;;;19.54;52.47
62617;BME280;62539;51.190;6.808;2023-04-25T05:26:46;100859.22;;;19.55;52.62
62617;BME280;62539;51.190;6.808;2023-04-25T05:29:11;100856.56;;;19.57;52.54
62617;BME280;62539;51.190;6.808;2023-04-25T05:31:37;100858.28;;;19.58;52.58
62617;BME280;62539;51.190;6.808;2023-04-25T05:34:03;100867.81;;;19.60;52.63
62617;BME280;62539;51.190;6.808;2023-04-25T05:36:28;100871.25;;;19.62;52.49
62617;BME280;62539;51.190;6.808;2023-04-25T05:38:54;100867.69;;;19.63;52.65
62617;BME280;62539;51.190;6.808;2023-04-25T05:41:19;100867.59;;;19.66;52.78
62617;BME280;62539;51.190;6.808;2023-04-25T05:43:45;100868.47;;;19.67;52.62
62617;BME280;62539;51.190;6.808;2023-04-25T05:46:13;100873.72;;;19.67;52.47
62617;BME280;62539;51.190;6.808;2023-04-25T05:48:39;100871.13;;;19.65;51.77
62617;BME280;62539;51.190;6.808;2023-04-25T05:51:05;100876.41;;;19.65;51.80
62617;BME280;62539;51.190;6.808;2023-04-25T05:53:30;100879.03;;;19.65;51.61
62617;BME280;62539;51.190;6.808;2023-04-25T05:55:56;100880.75;;;19.66;51.54
62617;BME280;62539;51.190;6.808;2023-04-25T05:58:21;100883.38;;;19.66;51.48
62617;BME280;62539;51.190;6.808;2023-04-25T06:00:47;100887.72;;;19.67;51.53
62617;BME280;62539;51.190;6.808;2023-04-25T06:03:13;100895.63;;;19.67;51.38
62617;BME280;62539;51.190;6.808;2023-04-25T06:05:41;100891.22;;;19.68;51.61
62617;BME280;62539;51.190;6.808;2023-04-25T06:08:08;100890.31;;;19.69;51.58
62617;BME280;62539;51.190;6.808;2023-04-25T06:10:34;100891.97;;;19.72;51.68
62617;BME280;62539;51.190;6.808;2023-04-25T06:13:00;100893.66;;;19.73;51.72
62617;BME280;62539;51.190;6.808;2023-04-25T06:15:26;100897.97;;;19.75;51.63
62617;BME280;62539;51.190;6.808;2023-04-25T06:17:51;100898.72;;;19.79;51.58
62617;BME280;62539;51.190;6.808;2023-04-25T06:20:16;100901.28;;;19.80;51.47
62617;BME280;62539;51.190;6.808;2023-04-25T06:22:42;100895.03;;;19.83;51.43
62617;BME280;62539;51.190;6.808;2023-04-25T06:25:07;100903.75;;;19.85;51.78
62617;BME280;62539;51.190;6.808;2023-04-25T06:27:34;100907.16;;;19.87;51.62
62617;BME280;62539;51.190;6.808;2023-04-25T06:29:59;100903.63;;;19.88;51.45
62617;BME280;62539;51.190;6.808;2023-04-25T06:32:25;100910.63;;;19.89;51.33
62617;BME280;62539;51.190;6.808;2023-04-25T06:34:52;100913.28;;;19.89;51.46
62617;BME280;62539;51.190;6.808;2023-04-25T06:37:18;100912.34;;;19.90;51.52
62617;BME280;62539;51.190;6.808;2023-04-25T06:39:43;100919.34;;;19.91;51.51
62617;BME280;62539;51.190;6.808;2023-04-25T06:42:08;100912.31;;;19.92;51.50
62617;BME280;62539;51.190;6.808;2023-04-25T06:44:35;100927.13;;;19.94;51.36
62617;BME280;62539;51.190;6.808;2023-04-25T06:47:00;100925.34;;;19.95;51.38
62617;BME280;62539;51.190;6.808;2023-04-25T06:49:26;100919.97;;;19.98;51.37
62617;BME280;62539;51.190;6.808;2023-04-25T06:51:51;100934.78;;;20.01;51.39
62617;BME280;62539;51.190;6.808;2023-04-25T06:54:17;100940.84;;;20.03;51.48
62617;BME280;62539;51.190;6.808;2023-04-25T06:56:42;100937.31;;;20.04;51.56
62617;BME280;62539;51.190;6.808;2023-04-25T06:59:08;100934.56;;;20.07;51.42
62617;BME280;62539;51.190;6.808;2023-04-25T07:01:34;100942.41;;;20.08;51.17
62617;BME280;62539;51.190;6.808;2023-04-25T07:04:00;100944.13;;;20.09;51.57
62617;BME280;62539;51.190;6.808;2023-04-25T07:06:25;100937.03;;;20.11;51.61
62617;BME280;62539;51.190;6.808;2023-04-25T07:08:52;100944.00;;;20.12;51.43
62617;BME280;62539;51.190;6.808;2023-04-25T07:11:18;100946.63;;;20.12;51.43
62617;BME280;62539;51.190;6.808;2023-04-25T07:13:43;100948.41;;;20.12;51.60
62617;BME280;62539;51.190;6.808;2023-04-25T07:16:09;100947.47;;;20.13;51.48
62617;BME280;62539;51.190;6.808;2023-04-25T07:18:34;100943.94;;;20.14;51.57
62617;BME280;62539;51.190;6.808;2023-04-25T07:20:59;100944.72;;;20.16;51.75
62617;BME280;62539;51.190;6.808;2023-04-25T07:23:25;100953.44;;;20.18;51.50
62617;BME280;62539;51.190;6.808;2023-04-25T07:25:50;100956.88;;;20.20;51.54
62617;BME280;62539;51.190;6.808;2023-04-25T07:28:16;100951.59;;;20.20;51.54
62617;BME280;62539;51.190;6.808;2023-04-25T07:30:41;100959.38;;;20.23;51.40
62617;BME280;62539;51.190;6.808;2023-04-25T07:33:07;100951.34;;;20.26;51.38
62617;BME280;62539;51.190;6.808;2023-04-25T07:35:32;100959.25;;;20.26;51.33
62617;BME280;62539;51.190;6.808;2023-04-25T07:37:57;100957.44;;;20.29;51.38
62617;BME280;62539;51.190;6.808;2023-04-25T07:40:24;100963.50;;;20.31;51.31
62617;BME280;62539;51.190;6.808;2023-04-25T07:42:49;100957.31;;;20.32;51.46
62617;BME280;62539;51.190;6.808;2023-04-25T07:45:15;100961.66;;;20.33;51.40
62617;BME280;62539;51.190;6.808;2023-04-25T07:47:40;100966.00;;;20.34;51.51
62617;BME280;62539;51.190;6.808;2023-04-25T07:50:06;100968.72;;;20.32;51.58
62617;BME280;62539;51.190;6.808;2023-04-25T07:52:32;100970.47;;;20.32;51.52
62617;BME280;62539;51.190;6.808;2023-04-25T07:54:57;100976.66;;;20.31;51.59
62617;BME280;62539;51.190;6.808;2023-04-25T07:57:23;100980.19;;;20.31;51.58
62617;BME280;62539;51.190;6.808;2023-04-25T07:59:49;100982.72;;;20.33;51.75
62617;BME280;62539;51.190;6.808;2023-04-25T08:02:14;100985.44;;;20.31;51.66
62617;BME280;62539;51.190;6.808;2023-04-25T08:04:40;100989.84;;;20.31;51.73
62617;BME280;62539;51.190;6.808;2023-04-25T08:07:05;100995.97;;;20.31;51.68
62617;BME280;62539;51.190;6.808;2023-04-25T08:09:31;100991.56;;;20.32;51.50
62617;BME280;62539;51.190;6.808;2023-04-25T08:11:59;100995.91;;;20.33;51.47
62617;BME280;62539;51.190;6.808;2023-04-25T08:14:26;101000.25;;;20.34;51.57
62617;BME280;62539;51.190;6.808;2023-04-25T08:16:51;101007.25;;;20.35;51.45
62617;BME280;62539;51.190;6.808;2023-04-25T08:19:16;101007.25;;;20.35;51.75
62617;BME280;62539;51.190;6.808;2023-04-25T08:21:42;101007.25;;;20.35;51.43
62617;BME280;62539;51.190;6.808;2023-04-25T08:24:07;101014.22;;;20.36;51.41
62617;BME280;62539;51.190;6.808;2023-04-25T08:26:33;101012.50;;;20.35;51.38
62617;BME280;62539;51.190;6.808;2023-04-25T08:28:59;101015.09;;;20.36;51.54
62617;BME280;62539;51.190;6.808;2023-04-25T08:31:25;101019.38;;;20.39;51.40
62617;BME280;62539;51.190;6.808;2023-04-25T08:33:50;101024.63;;;20.40;51.68
62617;BME280;62539;51.190;6.808;2023-04-25T08:36:16;101029.81;;;20.42;51.30
62617;BME280;62539;51.190;6.808;2023-04-25T08:38:42;101032.28;;;20.47;51.74
62617;BME280;62539;51.190;6.808;2023-04-25T08:41:08;101040.13;;;20.48;51.54
62617;BME280;62539;51.190;6.808;2023-04-25T08:43:37;101045.38;;;20.48;51.29
62617;BME280;62539;51.190;6.808;2023-04-25T08:46:03;101044.47;;;20.49;51.53
62617;BME280;62539;51.190;6.808;2023-04-25T08:48:32;101043.56;;;20.50;51.54
62617;BME280;62539;51.190;6.808;2023-04-25T08:51:01;101046.97;;;20.52;51.48
62617;BME280;62539;51.190;6.808;2023-04-25T08:53:30;101048.69;;;20.53;51.37
62617;BME280;62539;51.190;6.808;2023-04-25T08:55:58;101043.31;;;20.56;51.47
62617;BME280;62539;51.190;6.808;2023-04-25T08:58:25;101054.66;;;20.59;51.45
62617;BME280;62539;51.190;6.808;2023-04-25T09:00:51;101044.91;;;20.61;51.13
62617;BME280;62539;51.190;6.808;2023-04-25T09:03:17;101063.19;;;20.65;51.09
62617;BME280;62539;51.190;6.808;2023-04-25T09:05:43;101065.75;;;20.67;51.07
62617;BME280;62539;51.190;6.808;2023-04-25T09:08:09;101069.06;;;20.72;50.94
62617;BME280;62539;51.190;6.808;2023-04-25T09:10:36;101073.38;;;20.75;50.89
62617;BME280;62539;51.190;6.808;2023-04-25T09:13:11;101070.69;;;20.76;51.05
62617;BME280;62539;51.190;6.808;2023-04-25T09:15:51;101081.22;;;20.76;50.93
62617;BME280;62539;51.190;6.808;2023-04-25T09:18:29;101082.13;;;20.75;50.98
62617;BME280;62539;51.190;6.808;2023-04-25T09:20:58;101085.66;;;20.76;51.16
62617;BME280;62539;51.190;6.808;2023-04-25T09:23:39;101093.59;;;20.74;50.97
62617;BME280;62539;51.190;6.808;2023-04-25T09:26:07;101095.31;;;20.75;51.24
62617;BME280;62539;51.190;6.808;2023-04-25T09:28:34;101094.41;;;20.76;51.25
62617;BME280;62539;51.190;6.808;2023-04-25T09:31:00;101095.22;;;20.78;51.14
62617;BME280;62539;51.190;6.808;2023-04-25T09:33:32;101090.84;;;20.79;51.13
62617;BME280;62539;51.190;6.808;2023-04-25T09:36:08;101095.13;;;20.81;51.11
62617;BME280;62539;51.190;6.808;2023-04-25T09:38:46;101082.69;;;20.85;50.82
62617;BME280;62539;51.190;6.808;2023-04-25T09:41:12;101094.75;;;20.91;50.84
62617;BME280;62539;51.190;6.808;2023-04-25T09:43:38;101106.91;;;20.95;50.67
62617;BME280;62539;51.190;6.808;2023-04-25T09:46:09;101106.78;;;20.98;50.55
62617;BME280;62539;51.190;6.808;2023-04-25T09:48:36;101101.25;;;21.04;50.75
62617;BME280;62539;51.190;6.808;2023-04-25T09:51:12;101098.69;;;21.03;50.42
62617;BME280;62539;51.190;6.808;2023-04-25T09:53:40;101103.09;;;21.02;50.63
62617;BME280;62539;51.190;6.808;2023-04-25T09:56:09;101108.44;;;21.00;50.61
62617;BME280;62539;51.190;6.808;2023-04-25T09:58:37;101115.56;;;20.98;50.76
62617;BME280;62539;51.190;6.808;2023-04-25T10:01:08;101122.59;;;20.98;50.54
62617;BME280;62539;51.190;6.808;2023-04-25T10:03:36;101125.19;;;20.99;50.85
62617;BME280;62539;51.190;6.808;2023-04-25T10:06:11;101127.72;;;21.03;50.77
62617;BME280;62539;51.190;6.808;2023-04-25T10:08:40;101130.22;;;21.06;50.39
62617;BME280;62539;51.190;6.808;2023-04-25T10:11:07;101133.66;;;21.08;50.33
62617;BME280;62539;51.190;6.808;2023-04-25T10:13:35;101136.22;;;21.09;50.32
62617;BME280;62539;51.190;6.808;2023-04-25T10:16:03;101145.88;;;21.10;50.30
62617;BME280;62539;51.190;6.808;2023-04-25T10:18:30;101138.88;;;21.09;50.53
62617;BME280;62539;51.190;6.808;2023-04-25T10:21:02;101151.13;;;21.10;50.56
62617;BME280;62539;51.190;6.808;2023-04-25T10:23:30;101152.06;;;21.09;50.42
62617;BME280;62539;51.190;6.808;2023-04-25T10:25:57;101154.66;;;21.11;50.31
62617;BME280;62539;51.190;6.808;2023-04-25T10:28:24;101148.38;;;21.13;50.43
62617;BME280;62539;51.190;6.808;2023-04-25T10:31:00;101153.53;;;21.17;50.11
62617;BME280;62539;51.190;6.808;2023-04-25T10:33:34;101156.13;;;21.18;50.30
62617;BME280;62539;51.190;6.808;2023-04-25T10:36:12;101158.81;;;21.17;50.21
62617;BME280;62539;51.190;6.808;2023-04-25T10:38:42;101162.25;;;21.19;50.08
62617;BME280;62539;51.190;6.808;2023-04-25T10:41:10;101160.47;;;21.19;50.32
62617;BME280;62539;51.190;6.808;2023-04-25T10:43:46;101159.56;;;21.20;50.24
62617;BME280;62539;51.190;6.808;2023-04-25T10:46:25;101167.31;;;21.23;50.18
62617;BME280;62539;51.190;6.808;2023-04-25T10:48:53;101165.44;;;21.27;49.96
62617;BME280;62539;51.190;6.808;2023-04-25T10:51:26;101160.03;;;21.30;50.03
62617;BME280;62539;51.190;6.808;2023-04-25T10:54:03;101154.56;;;21.35;49.84
62617;BME280;62539;51.190;6.808;2023-04-25T10:59:14;101161.38;;;21.40;49.59
62617;BME280;62539;51.190;6.808;2023-04-25T11:01:42;101162.97;;;21.44;49.71
62617;BME280;62539;51.190;6.808;2023-04-25T11:04:32;101152.31;;;21.48;49.53
62617;BME280;62539;51.190;6.808;2023-04-25T11:07:16;101151.25;;;21.52;49.71
62617;BME280;62539;51.190;6.808;2023-04-25T11:10:03;101156.09;;;21.63;49.27
62617;BME280;62539;51.190;6.808;2023-04-25T11:12:33;101154.00;;;21.71;49.16
62617;BME280;62539;51.190;6.808;2023-04-25T11:15:05;101143.31;;;21.74;49.33
62617;BME280;62539;51.190;6.808;2023-04-25T11:17:33;101144.84;;;21.80;49.26
62617;BME280;62539;51.190;6.808;2023-04-25T11:19:59;101154.91;;;21.92;48.65
62617;BME280;62539;51.190;6.808;2023-04-25T11:22:26;101149.41;;;21.97;48.91
62617;BME280;62539;51.190;6.808;2023-04-25T11:24:53;101153.72;;;21.99;48.68
62617;BME280;62539;51.190;6.808;2023-04-25T11:27:18;101156.28;;;22.01;48.49
62617;BME280;62539;51.190;6.808;2023-04-25T11:29:46;101151.78;;;22.03;48.52
62617;BME280;62539;51.190;6.808;2023-04-25T11:32:14;101147.38;;;22.03;48.65
62617;BME280;62539;51.190;6.808;2023-04-25T11:34:43;101147.28;;;22.05;48.30
62617;BME280;62539;51.190;6.808;2023-04-25T11:37:10;101157.81;;;22.07;48.58
62617;BME280;62539;51.190;6.808;2023-04-25T11:39:37;101155.03;;;22.10;48.33
62617;BME280;62539;51.190;6.808;2023-04-25T11:42:03;101155.03;;;22.10;48.39
62617;BME280;62539;51.190;6.808;2023-04-25T11:44:30;101151.19;;;22.17;48.06
62617;BME280;62539;51.190;6.808;2023-04-25T11:46:56;101142.19;;;22.21;48.35
62617;BME280;62539;51.190;6.808;2023-04-25T11:49:21;101151.91;;;22.21;48.16
62617;BME280;62539;51.190;6.808;2023-04-25T11:51:48;101159.91;;;22.19;48.24
62617;BME280;62539;51.190;6.808;2023-04-25T11:54:14;101158.34;;;22.34;47.92
62617;BME280;62539;51.190;6.808;2023-04-25T11:56:41;101154.28;;;22.48;47.23
62617;BME280;62539;51.190;6.808;2023-04-25T11:59:07;101166.88;;;22.61;47.04
62617;BME280;62539;51.190;6.808;2023-04-25T12:01:37;101161.03;;;22.74;46.72
62617;BME280;62539;51.190;6.808;2023-04-25T12:04:15;101164.81;;;22.87;46.48
62617;BME280;62539;51.190;6.808;2023-04-25T12:06:41;101165.66;;;22.88;46.37
62617;BME280;62539;51.190;6.808;2023-04-25T12:09:10;101168.75;;;22.98;46.52
62617;BME280;62539;51.190;6.808;2023-04-25T12:11:57;101170.47;;;22.99;46.42
62617;BME280;62539;51.190;6.808;2023-04-25T12:14:26;101184.47;;;23.01;46.11
62617;BME280;62539;51.190;6.808;2023-04-25T12:16:56;101180.25;;;22.97;46.27
62617;BME280;62539;51.190;6.808;2023-04-25T12:19:31;101190.91;;;22.95;46.22
62617;BME280;62539;51.190;6.808;2023-04-25T12:22:00;101194.47;;;22.94;46.60
62617;BME280;62539;51.190;6.808;2023-04-25T12:24:28;101195.34;;;22.95;46.51
62617;BME280;62539;51.190;6.808;2023-04-25T12:27:03;101190.34;;;22.88;46.69
62617;BME280;62539;51.190;6.808;2023-04-25T12:29:33;101200.34;;;22.82;46.74
62617;BME280;62539;51.190;6.808;2023-04-25T12:32:00;101201.50;;;22.76;46.83
62617;BME280;62539;51.190;6.808;2023-04-25T12:34:28;101208.63;;;22.74;46.82
62617;BME280;62539;51.190;6.808;2023-04-25T12:36:54;101220.19;;;22.71;47.05
62617;BME280;62539;51.190;6.808;2023-04-25T12:39:24;101217.63;;;22.70;46.80
62617;BME280;62539;51.190;6.808;2023-04-25T12:41:52;101215.13;;;22.67;46.98
62617;BME280;62539;51.190;6.808;2023-04-25T12:44:21;101224.84;;;22.66;46.97
62617;BME280;62539;51.190;6.808;2023-04-25T12:46:47;101224.91;;;22.65;47.09
62617;BME280;62539;51.190;6.808;2023-04-25T12:49:13;101219.50;;;22.68;46.95
62617;BME280;62539;51.190;6.808;2023-04-25T12:51:39;101224.69;;;22.69;47.28